Time;durP1;ratioP1;P1;durP2;ratioP2;P2;SDS_P1;SDS_P2;PMS_P1;PMS_P2;Temp;Humidity;BMP_temperature;BMP_pressure;BME280_temperature;BME280_humidity;BME280_pressure;Samples;Min_cycle;Max_cycle;Signal;HPM_P1;HPM_P2
2021/01/02 00:02:06;;;;;;;374.52;62.35;;;;;;;-2.24;100.00;97784.84;5094000;28;20503;-74
2021/01/02 00:04:53;;;;;;;404.65;62.72;;;;;;;-2.40;100.00;97783.53;5093696;28;20117;-80
2021/01/02 00:07:40;;;;;;;511.20;58.13;;;;;;;-2.36;100.00;97780.00;5094578;28;20052;-75
2021/01/02 00:10:09;;;;;;;474.83;64.10;;;;;;;-2.57;100.00;97781.38;5093979;28;20051;-75
2021/01/02 00:13:12;;;;;;;372.77;57.47;;;;;;;-2.56;100.00;97781.34;5093243;28;20102;-74
2021/01/02 00:16:04;;;;;;;564.78;60.60;;;;;;;-2.65;100.00;97786.69;5092988;28;20050;-75
2021/01/02 00:19:04;;;;;;;465.23;59.67;;;;;;;-2.60;100.00;97789.13;5093998;28;20048;-80
2021/01/02 00:21:44;;;;;;;365.38;59.80;;;;;;;-2.59;100.00;97791.66;5090179;28;20043;-79
2021/01/02 00:24:29;;;;;;;416.63;61.08;;;;;;;-2.54;100.00;97799.25;5093949;28;20040;-74
2021/01/02 00:27:04;;;;;;;643.92;67.13;;;;;;;-2.77;100.00;97792.94;5093425;28;20040;-74
2021/01/02 00:29:45;;;;;;;416.10;65.57;;;;;;;-2.67;100.00;97792.72;5093714;28;20051;-79
2021/01/02 00:32:23;;;;;;;534.17;62.72;;;;;;;-2.70;100.00;97793.66;5093935;28;20044;-74
2021/01/02 00:35:01;;;;;;;358.58;61.47;;;;;;;-2.76;100.00;97798.91;5092925;28;20036;-75
2021/01/02 00:37:59;;;;;;;692.92;66.68;;;;;;;-2.79;100.00;97799.81;5093789;28;20048;-74
2021/01/02 00:40:26;;;;;;;426.13;61.10;;;;;;;-2.56;100.00;97801.84;5090514;28;20059;-74
2021/01/02 00:42:52;;;;;;;463.45;58.42;;;;;;;-2.55;100.00;97788.16;5092775;28;20036;-75
2021/01/02 00:45:29;;;;;;;407.98;57.45;;;;;;;-2.48;100.00;97791.41;5093846;28;20403;-74
2021/01/02 00:47:56;;;;;;;406.88;59.65;;;;;;;-2.70;100.00;97796.22;5093035;28;20487;-73
2021/01/02 00:50:24;;;;;;;475.50;64.68;;;;;;;-2.73;100.00;97788.59;5093430;28;20082;-74
2021/01/02 00:53:02;;;;;;;411.38;63.25;;;;;;;-2.84;100.00;97790.53;5092878;28;20494;-74
2021/01/02 00:55:32;;;;;;;421.23;64.10;;;;;;;-2.81;100.00;97786.19;5094023;28;20078;-74
2021/01/02 00:58:22;;;;;;;653.55;68.07;;;;;;;-2.81;100.00;97791.34;5093147;28;20036;-74
2021/01/02 01:00:59;;;;;;;421.00;57.55;;;;;;;-2.61;100.00;97806.25;5092182;28;20048;-75
2021/01/02 01:03:31;;;;;;;454.88;55.60;;;;;;;-2.68;100.00;97802.16;5093269;28;20047;-74
2021/01/02 01:06:02;;;;;;;464.75;56.63;;;;;;;-2.93;100.00;97810.38;5092234;28;20052;-75
2021/01/02 01:08:32;;;;;;;928.33;65.30;;;;;;;-3.04;100.00;97798.66;5093187;28;20044;-75
2021/01/02 01:11:01;;;;;;;414.98;56.47;;;;;;;-2.98;100.00;97801.97;5092208;28;20044;-74
2021/01/02 01:13:27;;;;;;;548.03;61.25;;;;;;;-3.09;100.00;97801.34;5093114;28;20048;-74
2021/01/02 01:15:53;;;;;;;337.25;57.65;;;;;;;-3.02;100.00;97804.63;5092131;28;20044;-74
2021/01/02 01:18:43;;;;;;;317.48;54.95;;;;;;;-2.85;100.00;97799.97;5092959;28;20043;-74
2021/01/02 01:21:14;;;;;;;795.28;63.08;;;;;;;-3.02;100.00;97799.50;5092728;28;20055;-74
2021/01/02 01:23:52;;;;;;;443.08;55.22;;;;;;;-3.03;100.00;97803.75;5092388;28;20051;-75
2021/01/02 01:26:23;;;;;;;1066.15;68.00;;;;;;;-3.14;100.00;97808.28;5093204;28;20130;-74
2021/01/02 01:28:55;;;;;;;922.85;66.93;;;;;;;-3.18;100.00;97809.22;5091961;28;20036;-75
2021/01/02 01:31:21;;;;;;;779.67;64.03;;;;;;;-3.23;100.00;97809.31;5092887;28;20119;-74
2021/01/02 01:33:49;;;;;;;977.25;71.63;;;;;;;-3.31;100.00;97806.06;5091633;28;20044;-75
2021/01/02 01:36:21;;;;;;;471.30;64.43;;;;;;;-3.18;100.00;97806.66;5092456;28;20048;-75
2021/01/02 01:38:56;;;;;;;518.08;70.28;;;;;;;-3.13;100.00;97810.81;5091430;28;20488;-75
2021/01/02 01:41:59;;;;;;;527.25;67.00;;;;;;;-2.99;100.00;97807.13;5092796;28;20119;-75
2021/01/02 01:44:43;;;;;;;580.78;64.78;;;;;;;-2.80;100.00;97805.81;5092470;28;20040;-75
2021/01/02 01:47:39;;;;;;;620.75;63.63;;;;;;;-2.93;100.00;97797.56;5092201;28;20048;-74
2021/01/02 01:50:26;;;;;;;471.35;65.05;;;;;;;-3.00;100.00;97800.31;5091590;28;20454;-74
2021/01/02 01:52:52;;;;;;;290.70;56.28;;;;;;;-2.93;100.00;97814.69;5091284;28;20044;-74
2021/01/02 01:55:18;;;;;;;349.42;61.33;;;;;;;-2.94;100.00;97806.13;5092287;28;20367;-74
2021/01/02 01:57:49;;;;;;;646.42;65.63;;;;;;;-2.98;100.00;97812.22;5091130;28;20047;-75
2021/01/02 02:00:16;;;;;;;505.02;63.65;;;;;;;-3.10;100.00;97808.19;5092285;28;20052;-75
2021/01/02 02:02:45;;;;;;;719.97;69.43;;;;;;;-3.13;100.00;97818.50;5091060;28;20475;-75
2021/01/02 02:05:17;;;;;;;451.50;63.85;;;;;;;-3.14;100.00;97821.94;5092092;28;20135;-74
2021/01/02 02:07:53;;;;;;;460.95;65.20;;;;;;;-3.04;100.00;97820.06;5091102;28;20051;-75
2021/01/02 02:10:30;;;;;;;321.80;61.13;;;;;;;-3.10;100.00;97809.94;5091533;28;20093;-74
2021/01/02 02:12:59;;;;;;;423.38;62.38;;;;;;;-3.08;100.00;97811.56;5091308;28;20064;-75
2021/01/02 02:15:27;;;;;;;340.33;65.40;;;;;;;-3.05;100.00;97813.22;5092097;28;20062;-74
2021/01/02 02:18:07;;;;;;;321.48;64.18;;;;;;;-2.99;100.00;97807.13;5090849;28;20040;-75
2021/01/02 02:20:34;;;;;;;354.83;64.82;;;;;;;-3.00;100.00;97813.97;5091836;28;20067;-74
2021/01/02 02:23:06;;;;;;;266.17;60.10;;;;;;;-2.86;100.00;97812.81;5091128;28;20036;-75
2021/01/02 02:26:02;;;;;;;357.58;65.28;;;;;;;-2.76;100.00;97806.63;5090789;28;20047;-74
2021/01/02 02:28:41;;;;;;;228.68;59.15;;;;;;;-2.53;100.00;97817.19;5091720;28;20476;-75
2021/01/02 02:31:07;;;;;;;227.23;60.78;;;;;;;-2.66;100.00;97813.22;5091741;28;20097;-74
2021/01/02 02:33:37;;;;;;;180.35;53.05;;;;;;;-2.45;100.00;97814.44;5091916;28;20505;-74
2021/01/02 02:36:04;;;;;;;183.85;56.05;;;;;;;-2.46;100.00;97817.03;5090868;28;20048;-74
2021/01/02 02:38:36;;;;;;;176.02;54.53;;;;;;;-2.27;100.00;97802.03;5091775;28;20395;-74
2021/01/02 02:41:08;;;;;;;;;;;;;;;-2.18;100.00;97806.94;5091080;28;20054;-74
2021/01/02 02:43:39;;;;;;;164.57;53.35;;;;;;;-2.13;100.00;97799.13;5091030;28;19920;-74
2021/01/02 02:46:11;;;;;;;153.43;53.75;;;;;;;-2.41;100.00;97808.38;5092938;28;20063;-75
2021/01/02 02:48:41;;;;;;;144.45;51.53;;;;;;;-2.28;100.00;97808.91;5095740;28;20040;-74
2021/01/02 02:51:10;;;;;;;154.77;53.28;;;;;;;-2.44;100.00;97805.88;5095232;28;20055;-75
2021/01/02 02:53:37;;;;;;;159.55;56.08;;;;;;;-2.48;100.00;97793.97;5095649;28;20491;-74
2021/01/02 02:56:02;;;;;;;172.13;56.40;;;;;;;-2.56;100.00;97801.03;5094868;28;20070;-74
2021/01/02 02:58:31;;;;;;;173.80;58.40;;;;;;;-2.58;100.00;97793.38;5095286;28;20048;-74
2021/01/02 03:00:57;;;;;;;164.50;57.05;;;;;;;-2.54;100.00;97794.13;5094672;28;20055;-74
2021/01/02 03:03:23;;;;;;;162.27;55.53;;;;;;;-2.60;100.00;97795.09;5094370;28;20056;-75
2021/01/02 03:05:56;;;;;;;188.68;58.30;;;;;;;-2.57;100.00;97805.28;5094329;28;20044;-75
2021/01/02 03:08:23;;;;;;;168.85;55.70;;;;;;;-2.56;100.00;97801.03;5095398;28;20036;-74
2021/01/02 03:10:49;;;;;;;180.02;57.80;;;;;;;-2.41;100.00;97799.81;5094711;28;20047;-75
2021/01/02 03:13:15;;;;;;;161.35;53.85;;;;;;;-2.47;100.00;97795.69;5095058;28;20052;-74
2021/01/02 03:15:42;;;;;;;164.48;55.15;;;;;;;-2.44;100.00;97795.59;5094096;28;20044;-75
2021/01/02 03:18:08;;;;;;;146.73;53.35;;;;;;;-2.40;100.00;97799.75;5094214;28;20040;-74
2021/01/02 03:20:34;;;;;;;148.90;51.95;;;;;;;-2.42;100.00;97798.13;5095189;28;20040;-74
2021/01/02 03:23:00;;;;;;;140.18;53.78;;;;;;;-2.16;100.00;97807.75;5093964;28;20048;-75
2021/01/02 03:25:26;;;;;;;162.63;56.13;;;;;;;-2.30;100.00;97802.97;5095185;28;20040;-74
2021/01/02 03:27:53;;;;;;;179.82;58.80;;;;;;;-2.35;100.00;97799.66;5094015;28;20059;-74
2021/01/02 03:30:19;;;;;;;152.25;54.45;;;;;;;-2.24;100.00;97802.81;5094680;28;20498;-74
2021/01/02 03:32:45;;;;;;;153.60;58.22;;;;;;;-2.29;100.00;97796.09;5094585;28;20082;-78
2021/01/02 03:35:14;;;;;;;167.90;61.08;;;;;;;-2.35;100.00;97804.78;5094486;28;20040;-74
2021/01/02 03:37:43;;;;;;;159.95;58.88;;;;;;;-2.13;100.00;97796.56;5094964;28;20047;-75
2021/01/02 03:40:11;;;;;;;156.80;57.67;;;;;;;-2.16;100.00;97806.03;5093780;28;20491;-74
2021/01/02 03:42:38;;;;;;;160.98;59.10;;;;;;;-2.02;100.00;97802.28;5093643;28;20056;-75
2021/01/02 03:45:09;;;;;;;150.23;57.53;;;;;;;-2.16;100.00;97811.16;5093649;28;20048;-74
2021/01/02 03:47:36;;;;;;;154.68;54.88;;;;;;;-2.16;100.00;97808.59;5093921;28;20126;-74
2021/01/02 03:50:06;;;;;;;174.13;59.80;;;;;;;-2.01;100.00;97799.66;5093491;28;20047;-75
2021/01/02 03:52:35;;;;;;;174.00;56.13;;;;;;;-2.19;100.00;97805.28;5094877;28;20071;-74
2021/01/02 03:55:01;;;;;;;200.00;60.63;;;;;;;-2.18;100.00;97806.94;5093089;28;20062;-74
2021/01/02 03:57:27;;;;;;;211.15;60.75;;;;;;;-2.07;100.00;97806.66;5094366;28;20059;-74
2021/01/02 03:59:53;;;;;;;215.55;62.47;;;;;;;-2.01;100.00;97809.09;5093260;28;20528;-74
2021/01/02 04:02:18;;;;;;;218.52;60.90;;;;;;;-1.95;100.00;97797.81;5094249;28;20044;-75
2021/01/02 04:04:45;;;;;;;228.50;64.95;;;;;;;-2.05;100.00;97818.59;5094365;28;20063;-75
2021/01/02 04:07:10;;;;;;;228.27;64.47;;;;;;;-1.96;100.00;97814.09;5093601;28;20119;-75
2021/01/02 04:09:36;;;;;;;222.50;65.63;;;;;;;-1.85;100.00;97817.25;5094188;28;20124;-74
2021/01/02 04:12:02;;;;;;;238.32;68.03;;;;;;;-1.98;100.00;97820.16;5093337;28;20044;-75
2021/01/02 04:14:28;;;;;;;240.80;68.15;;;;;;;-2.08;100.00;97823.81;5093819;28;20072;-74
2021/01/02 04:16:53;;;;;;;244.18;69.63;;;;;;;-2.16;100.00;97824.00;5093058;28;20056;-75
2021/01/02 04:19:19;;;;;;;234.93;68.22;;;;;;;-2.11;100.00;97828.19;5094217;28;20454;-74
2021/01/02 04:21:46;;;;;;;224.25;68.10;;;;;;;-2.10;100.00;97820.44;5093957;28;20070;-75
2021/01/02 04:24:12;;;;;;;258.13;71.70;;;;;;;-2.06;100.00;97822.03;5093104;28;20396;-74
2021/01/02 04:26:39;;;;;;;207.88;66.28;;;;;;;-2.02;100.00;97813.38;5093930;28;20040;-75
2021/01/02 04:29:05;;;;;;;205.05;67.93;;;;;;;-2.01;100.00;97812.50;5092394;28;20044;-74
2021/01/02 04:31:39;;;;;;;233.70;68.95;;;;;;;-2.05;100.00;97818.59;5093712;28;20044;-74
2021/01/02 04:34:06;;;;;;;230.70;68.60;;;;;;;-2.03;100.00;97816.81;5092842;28;20052;-75
2021/01/02 04:36:32;;;;;;;190.55;64.72;;;;;;;-1.97;100.00;97813.28;5093208;28;20048;-74
2021/01/02 04:38:59;;;;;;;191.88;65.60;;;;;;;-2.01;100.00;97809.94;5091826;28;20032;-75
2021/01/02 04:41:25;;;;;;;192.90;65.03;;;;;;;-2.02;100.00;97810.81;5093881;28;20048;-74
2021/01/02 04:43:52;;;;;;;191.15;66.25;;;;;;;-2.02;100.00;97807.41;5091446;28;20044;-80
2021/01/02 04:46:18;;;;;;;199.60;65.13;;;;;;;-2.03;100.00;97805.72;5093102;28;20624;-75
2021/01/02 04:48:46;;;;;;;193.02;66.43;;;;;;;-2.00;100.00;97819.31;5090479;28;20044;-75
2021/01/02 04:51:13;;;;;;;195.23;64.97;;;;;;;-1.96;100.00;97825.25;5079477;28;20032;-74
2021/01/02 04:53:39;;;;;;;167.68;61.22;;;;;;;-1.81;100.00;97826.56;5072937;28;20059;-75
2021/01/02 04:56:06;;;;;;;164.80;61.28;;;;;;;-1.92;100.00;97826.81;5072808;28;20036;-74
2021/01/02 04:58:37;;;;;;;184.07;61.38;;;;;;;-1.91;100.00;97820.00;5071882;28;20053;-74
2021/01/02 05:01:04;;;;;;;183.30;65.03;;;;;;;-1.81;100.00;97830.00;5072420;28;20045;-74
2021/01/02 05:03:34;;;;;;;184.25;66.05;;;;;;;-1.83;100.00;97834.31;5072996;28;20448;-74
2021/01/02 05:06:01;;;;;;;173.63;65.93;;;;;;;-1.82;100.00;97843.72;5072054;28;20049;-75
2021/01/02 05:08:27;;;;;;;195.85;67.95;;;;;;;-1.86;100.00;97839.53;5089229;28;20052;-74
2021/01/02 05:11:01;;;;;;;219.38;69.50;;;;;;;-1.77;100.00;97835.88;5092462;28;20047;-79
2021/01/02 05:13:31;;;;;;;233.50;72.50;;;;;;;-1.75;100.00;97836.66;5073272;28;20067;-74
2021/01/02 05:16:15;;;;;;;230.23;72.10;;;;;;;-1.81;100.00;97837.69;5071879;28;20079;-75
2021/01/02 05:18:58;;;;;;;185.25;66.82;;;;;;;-1.70;100.00;97840.00;5072767;28;20146;-74
2021/01/02 05:21:28;;;;;;;192.70;67.00;;;;;;;-1.74;100.00;97840.94;5087571;28;20048;-74
2021/01/02 05:24:03;;;;;;;186.75;66.32;;;;;;;-1.74;100.00;97842.69;5092130;28;20388;-78
2021/01/02 05:26:30;;;;;;;167.05;61.80;;;;;;;-1.70;100.00;97845.13;5089350;28;20802;-74
2021/01/02 05:29:08;;;;;;;183.77;67.15;;;;;;;-1.72;100.00;97852.00;5078954;28;20529;-77
2021/01/02 05:31:36;;;;;;;186.73;70.15;;;;;;;-1.76;100.00;97844.41;5089712;28;20047;-74
2021/01/02 05:34:09;;;;;;;171.48;65.60;;;;;;;-1.74;100.00;97842.69;5091850;28;20388;-75
2021/01/02 05:36:36;;;;;;;162.77;63.75;;;;;;;-1.77;100.00;97850.47;5092637;28;20047;-74
2021/01/02 05:39:03;;;;;;;195.38;68.70;;;;;;;-1.72;100.00;97848.59;5091549;28;20044;-75
2021/01/02 05:41:46;;;;;;;204.07;66.22;;;;;;;-1.72;100.00;97848.59;5092599;28;20123;-75
2021/01/02 05:44:12;;;;;;;;;;;;;;;-1.72;100.00;97853.75;5092049;28;20054;-74
2021/01/02 05:46:46;;;;;;;145.75;58.22;;;;;;;-1.75;100.00;97844.38;5079832;28;20367;-75
2021/01/02 05:49:35;;;;;;;145.02;57.97;;;;;;;-1.61;100.00;97838.88;5071200;28;20119;-74
2021/01/02 05:52:03;;;;;;;151.73;60.13;;;;;;;-1.55;100.00;97835.31;5082886;28;20040;-75
2021/01/02 05:54:32;;;;;;;168.25;63.60;;;;;;;-1.63;100.00;97838.09;5091965;28;20054;-74
2021/01/02 05:57:05;;;;;;;165.25;62.35;;;;;;;-1.58;100.00;97843.09;5091465;28;20044;-79
2021/01/02 05:59:39;;;;;;;152.90;58.28;;;;;;;-1.62;100.00;97847.50;5091888;28;20047;-74
2021/01/02 06:02:37;;;;;;;160.18;60.83;;;;;;;-1.58;100.00;97851.66;5090802;28;20403;-74
2021/01/02 06:05:08;;;;;;;167.00;60.00;;;;;;;-1.60;100.00;97855.16;5067793;28;20048;-74
2021/01/02 06:07:36;;;;;;;168.35;62.42;;;;;;;-1.64;100.00;97859.53;5091585;28;20088;-74
2021/01/02 06:10:04;;;;;;;150.73;59.58;;;;;;;-1.63;100.00;97853.50;5090526;28;20048;-75
2021/01/02 06:12:35;;;;;;;148.00;60.05;;;;;;;-1.58;100.00;97853.38;5090981;28;20048;-75
2021/01/02 06:15:05;;;;;;;148.55;59.20;;;;;;;-1.57;100.00;97855.91;5091102;28;20044;-75
2021/01/02 06:17:39;;;;;;;126.85;52.15;;;;;;;-1.56;100.00;97861.88;5092231;28;20040;-74
2021/01/02 06:20:11;;;;;;;163.05;60.72;;;;;;;-1.54;100.00;97855.84;5090147;28;20059;-75
2021/01/02 06:22:37;;;;;;;129.80;53.88;;;;;;;-1.49;100.00;97851.41;5091958;28;20048;-74
2021/01/02 06:25:08;;;;;;;136.13;50.90;;;;;;;-1.46;100.00;97856.47;5089580;28;20135;-75
2021/01/02 06:27:41;;;;;;;145.27;54.42;;;;;;;-1.48;100.00;97860.81;5091532;28;20051;-74
2021/01/02 06:30:08;;;;;;;137.95;55.65;;;;;;;-1.45;100.00;97865.03;5090698;28;20533;-75
2021/01/02 06:32:34;;;;;;;137.25;53.92;;;;;;;-1.39;100.00;97858.88;5091796;28;20079;-74
2021/01/02 06:35:06;;;;;;;148.15;56.75;;;;;;;-1.32;100.00;97866.38;5090907;28;20051;-79
2021/01/02 06:37:48;;;;;;;147.40;56.55;;;;;;;-1.40;100.00;97859.78;5091802;28;20040;-70
2021/01/02 06:40:20;;;;;;;157.45;58.53;;;;;;;-1.43;100.00;97867.56;5090731;28;20055;-73
2021/01/02 06:42:56;;;;;;;;;;;;;;;-1.47;100.00;97871.94;5092047;28;20673;-70
2021/01/02 06:45:40;;;;;;;151.70;58.88;;;;;;;-1.47;100.00;97865.09;5090947;28;19951;-69
2021/01/02 06:48:20;;;;;;;142.90;55.95;;;;;;;-1.45;100.00;97878.72;5072686;28;20089;-71
2021/01/02 06:50:48;;;;;;;156.07;58.05;;;;;;;-1.45;100.00;97876.16;5091123;28;20055;-71
2021/01/02 06:53:22;;;;;;;149.25;55.85;;;;;;;-1.46;100.00;97879.59;5090823;28;20403;-71
2021/01/02 06:56:03;;;;;;;146.98;56.75;;;;;;;-1.43;100.00;97876.13;5091597;28;20051;-71
2021/01/02 06:58:35;;;;;;;168.40;62.08;;;;;;;-1.42;100.00;97876.94;5091707;28;20052;-71
2021/01/02 07:01:03;;;;;;;155.80;59.33;;;;;;;-1.41;100.00;97873.50;5091290;28;20052;-78
2021/01/02 07:03:41;;;;;;;163.55;60.13;;;;;;;-1.40;100.00;97886.31;5092010;28;20051;-70
2021/01/02 07:06:33;;;;;;;141.30;55.58;;;;;;;-1.38;100.00;97881.13;5090541;28;20479;-70
2021/01/02 07:09:27;;;;;;;150.52;58.85;;;;;;;-1.34;100.00;97877.59;5090937;28;20507;-70
2021/01/02 07:12:13;;;;;;;152.57;56.58;;;;;;;-1.31;100.00;97883.50;5089085;28;20452;-72
2021/01/02 07:14:40;;;;;;;181.88;59.92;;;;;;;-1.33;100.00;97887.00;5090875;28;20142;-73
2021/01/02 07:17:11;;;;;;;154.48;58.03;;;;;;;-1.15;100.00;97889.06;5090154;28;20044;-73
2021/01/02 07:19:38;;;;;;;169.80;59.97;;;;;;;-1.18;100.00;97890.88;5091145;28;20403;-72
2021/01/02 07:22:08;;;;;;;150.25;57.45;;;;;;;-1.13;100.00;97891.59;5090779;28;20040;-80
2021/01/02 07:24:47;;;;;;;163.38;62.35;;;;;;;-1.20;100.00;97890.09;5091451;28;20055;-71
2021/01/02 07:27:16;;;;;;;151.70;61.40;;;;;;;-1.23;100.00;97888.44;5074127;28;20041;-72
2021/01/02 07:29:46;;;;;;;174.00;65.68;;;;;;;-1.29;100.00;97886.03;5089629;28;20047;-71
2021/01/02 07:32:26;;;;;;;191.55;68.05;;;;;;;-1.25;100.00;97887.66;5093919;28;20044;-71
2021/01/02 07:34:54;;;;;;;170.70;66.57;;;;;;;-1.26;100.00;97891.91;5095004;28;20075;-70
2021/01/02 07:37:23;;;;;;;163.75;63.50;;;;;;;-1.29;100.00;97897.16;5094125;28;20044;-70
2021/01/02 07:40:04;;;;;;;169.02;64.68;;;;;;;-1.32;100.00;97892.09;5094801;28;20449;-71
2021/01/02 07:42:38;;;;;;;180.23;67.15;;;;;;;-1.31;100.00;97895.53;5087378;28;20052;-71
2021/01/02 07:45:09;;;;;;;184.60;64.18;;;;;;;-1.27;100.00;97900.53;5075036;28;20127;-77
2021/01/02 07:47:45;;;;;;;163.27;62.72;;;;;;;-1.24;100.00;97904.75;5073982;28;20071;-71
2021/01/02 07:50:12;;;;;;;162.07;62.67;;;;;;;-1.21;100.00;97902.09;5085346;28;20048;-71
2021/01/02 07:53:04;;;;;;;156.45;59.92;;;;;;;-1.15;100.00;97911.38;5094243;28;20094;-72
2021/01/02 07:55:34;;;;;;;163.02;63.13;;;;;;;-1.17;100.00;97918.31;5093833;28;20484;-70
2021/01/02 07:58:01;;;;;;;161.60;62.40;;;;;;;-1.12;100.00;97914.69;5094185;28;20070;-70
2021/01/02 08:00:27;;;;;;;169.88;64.05;;;;;;;-1.10;100.00;97914.66;5093621;28;20164;-70
2021/01/02 08:03:00;;;;;;;148.68;62.92;;;;;;;-1.06;100.00;97920.59;5093671;28;20506;-70
2021/01/02 08:05:26;;;;;;;174.73;68.90;;;;;;;-1.07;100.00;97914.56;5092898;28;20108;-71
2021/01/02 08:08:02;;;;;;;169.23;69.82;;;;;;;-1.06;100.00;97918.00;5093628;28;20041;-69
2021/01/02 08:10:30;;;;;;;206.85;69.35;;;;;;;-1.03;100.00;97925.66;5093410;28;20116;-69
2021/01/02 08:13:00;;;;;;;150.40;64.32;;;;;;;-1.03;100.00;97928.22;5092730;28;20135;-69
2021/01/02 08:15:31;;;;;;;153.52;64.53;;;;;;;-0.98;100.00;97928.91;5093084;28;20054;-69
2021/01/02 08:18:05;;;;;;;186.32;67.18;;;;;;;-0.96;100.00;97932.28;5092934;28;20044;-73
2021/01/02 08:20:31;;;;;;;164.70;60.58;;;;;;;-0.85;100.00;97931.97;5092757;28;20063;-72
2021/01/02 08:22:57;;;;;;;153.65;60.53;;;;;;;-0.80;100.00;97938.69;5093390;28;20055;-70
2021/01/02 08:25:23;;;;;;;168.90;62.83;;;;;;;-0.83;100.00;97941.38;5092658;28;20074;-71
2021/01/02 08:27:49;;;;;;;168.55;61.13;;;;;;;-0.80;100.00;97937.88;5094141;28;20044;-70
2021/01/02 08:30:18;;;;;;;116.32;52.47;;;;;;;-0.80;100.00;97940.44;5093111;28;20047;-75
2021/01/02 08:32:55;;;;;;;132.18;57.20;;;;;;;-0.76;100.00;97935.16;5093611;28;20522;-72
2021/01/02 08:35:26;;;;;;;135.25;55.33;;;;;;;-0.72;100.00;97944.47;5093069;28;20048;-71
2021/01/02 08:37:52;;;;;;;123.88;52.72;;;;;;;-0.73;100.00;97932.50;5093985;28;20036;-71
2021/01/02 08:40:19;;;;;;;134.70;58.70;;;;;;;-0.68;100.00;97924.66;5092909;28;20050;-71
2021/01/02 08:42:47;;;;;;;135.02;57.60;;;;;;;-0.68;100.00;97936.66;5092456;28;20052;-71
2021/01/02 08:45:30;;;;;;;135.90;60.15;;;;;;;-0.70;100.00;97934.13;5091859;28;20116;-72
2021/01/02 08:48:16;;;;;;;141.85;63.20;;;;;;;-0.61;100.00;97943.31;5093763;28;20059;-71
2021/01/02 08:50:43;;;;;;;146.18;59.40;;;;;;;-0.53;100.00;97938.78;5093640;28;20096;-72
2021/01/02 08:53:33;;;;;;;142.27;61.75;;;;;;;-0.49;100.00;97950.69;5093356;28;20466;-82
2021/01/02 08:56:18;;;;;;;144.55;62.78;;;;;;;-0.47;100.00;97941.19;5092393;28;20093;-71
2021/01/02 08:58:44;;;;;;;139.13;61.08;;;;;;;-0.23;100.00;97951.66;5093518;28;20407;-71
2021/01/02 09:01:10;;;;;;;132.63;58.75;;;;;;;-0.01;100.00;97951.84;5092982;28;20048;-80
2021/01/02 09:03:36;;;;;;;128.73;61.13;;;;;;;0.18;100.00;97941.78;5092711;28;20040;-71
2021/01/02 09:06:25;;;;;;;124.72;61.63;;;;;;;0.16;100.00;97953.88;5091890;28;20044;-71
2021/01/02 09:09:07;;;;;;;122.97;61.70;;;;;;;0.22;100.00;97942.50;5076642;28;20040;-71
2021/01/02 09:11:49;;;;;;;128.40;60.83;;;;;;;0.32;100.00;97939.59;5090862;28;20048;-71
2021/01/02 09:14:15;;;;;;;119.13;58.10;;;;;;;0.27;100.00;97951.78;5091322;28;20058;-71
2021/01/02 09:16:57;;;;;;;118.32;56.85;;;;;;;0.52;100.00;97956.16;5091735;28;20496;-71
2021/01/02 09:19:24;;;;;;;124.75;56.33;;;;;;;0.76;100.00;97964.81;5091922;28;20596;-71
2021/01/02 09:21:50;;;;;;;118.68;54.60;;;;;;;0.58;100.00;97961.09;5092388;28;20044;-68
2021/01/02 09:24:22;;;;;;;109.30;52.90;;;;;;;0.63;100.00;97958.38;5092176;28;20040;-69
2021/01/02 09:26:49;;;;;;;;;;;;;;;0.65;100.00;97948.84;5093233;28;20066;-70
2021/01/02 09:29:16;;;;;;;119.75;57.05;;;;;;;0.92;100.00;97954.81;5091855;28;20382;-80
2021/01/02 09:31:43;;;;;;;125.90;58.78;;;;;;;1.16;98.99;97955.69;5091487;28;20040;-71
2021/01/02 09:34:09;;;;;;;136.45;64.82;;;;;;;1.25;100.00;97957.94;5092664;28;20082;-71
2021/01/02 09:36:35;;;;;;;118.70;60.53;;;;;;;1.41;99.02;97962.56;5091577;28;20039;-73
2021/01/02 09:39:01;;;;;;;127.10;63.00;;;;;;;1.83;99.02;97950.66;5091173;28;20046;-71
2021/01/02 09:41:28;;;;;;;122.40;59.08;;;;;;;2.39;95.12;97950.13;5091735;28;20118;-71
2021/01/02 09:43:56;;;;;;;128.68;63.78;;;;;;;2.36;92.35;97955.44;5091838;28;20051;-71
2021/01/02 09:46:24;;;;;;;125.18;61.80;;;;;;;2.03;95.46;97961.06;5089356;28;20058;-73
2021/01/02 09:48:52;;;;;;;128.75;61.38;;;;;;;1.89;97.40;97953.00;5081233;28;20385;-72
2021/01/02 09:51:19;;;;;;;122.57;58.13;;;;;;;1.70;97.31;97958.88;5088745;28;20501;-72
2021/01/02 09:53:45;;;;;;;120.65;60.72;;;;;;;1.68;98.94;97958.06;5112433;28;20040;-70
2021/01/02 09:56:12;;;;;;;123.80;59.30;;;;;;;1.56;99.55;97955.94;5102712;28;20036;-70
2021/01/02 09:58:38;;;;;;;116.47;53.10;;;;;;;1.50;99.87;97949.28;5091072;28;20506;-72
2021/01/02 10:01:05;;;;;;;107.65;51.67;;;;;;;1.37;99.83;97961.78;5083424;28;20056;-70
2021/01/02 10:03:31;;;;;;;96.15;48.72;;;;;;;1.46;98.78;97957.22;5069964;28;20052;-70
2021/01/02 10:05:57;;;;;;;103.28;49.67;;;;;;;1.45;99.33;97956.34;5072807;28;20045;-71
2021/01/02 10:08:23;;;;;;;97.80;50.00;;;;;;;1.47;100.00;97953.72;5090468;28;20120;-70
2021/01/02 10:10:51;;;;;;;107.05;53.45;;;;;;;1.45;100.00;97948.59;5091872;28;20044;-70
2021/01/02 10:13:16;;;;;;;110.43;53.95;;;;;;;1.52;100.00;97947.47;5091467;28;20101;-77
2021/01/02 10:15:42;;;;;;;103.75;52.55;;;;;;;1.51;100.00;97956.13;5091461;28;20048;-71
2021/01/02 10:18:08;;;;;;;106.68;53.15;;;;;;;1.61;100.00;97954.88;5082187;28;20053;-71
2021/01/02 10:20:35;;;;;;;107.28;52.63;;;;;;;1.52;100.00;97954.41;5070873;28;20057;-71
2021/01/02 10:23:01;;;;;;;113.88;54.83;;;;;;;1.49;100.00;97949.34;5072243;28;20048;-70
2021/01/02 10:25:27;;;;;;;107.90;53.45;;;;;;;1.56;100.00;97938.72;5084072;28;20437;-71
2021/01/02 10:27:53;;;;;;;112.75;54.80;;;;;;;1.51;100.00;97944.97;5087181;28;20068;-70
2021/01/02 10:30:19;;;;;;;116.47;56.15;;;;;;;1.51;100.00;97942.38;5068812;28;20484;-71
2021/01/02 10:32:45;;;;;;;118.45;57.25;;;;;;;1.55;100.00;97943.97;5082701;28;20040;-70
2021/01/02 10:35:14;;;;;;;121.18;58.03;;;;;;;1.48;100.00;97937.31;5062005;28;20052;-71
2021/01/02 10:37:40;;;;;;;127.15;63.00;;;;;;;1.52;100.00;97936.31;5064012;28;20044;-72
2021/01/02 10:40:07;;;;;;;135.73;64.25;;;;;;;1.46;100.00;97928.78;5068829;28;20075;-71
2021/01/02 10:42:35;;;;;;;127.00;63.60;;;;;;;1.47;100.00;97928.75;5049364;28;20432;-70
2021/01/02 10:45:01;;;;;;;126.55;63.47;;;;;;;1.50;100.00;97914.84;5051177;28;20049;-70
2021/01/02 10:47:29;;;;;;;131.63;63.50;;;;;;;1.52;100.00;97918.22;5050345;28;20049;-70
2021/01/02 10:49:55;;;;;;;134.48;63.90;;;;;;;1.51;100.00;97922.53;5051180;28;20055;-69
2021/01/02 10:52:24;;;;;;;120.97;61.67;;;;;;;1.48;100.00;97921.81;5053602;28;20119;-78
2021/01/02 10:54:51;;;;;;;108.00;55.95;;;;;;;1.49;100.00;97920.94;5070695;28;20186;-73
2021/01/02 10:57:18;;;;;;;102.97;51.25;;;;;;;1.52;100.00;97908.72;5069876;28;20040;-69
2021/01/02 10:59:46;;;;;;;88.38;45.72;;;;;;;1.47;100.00;97920.13;5070422;28;20052;-70
2021/01/02 11:02:14;;;;;;;100.53;49.22;;;;;;;1.45;100.00;97929.69;5071011;28;20063;-70
2021/01/02 11:04:39;;;;;;;89.63;47.50;;;;;;;1.46;100.00;97921.03;5070469;28;20037;-70
2021/01/02 11:07:06;;;;;;;88.72;46.10;;;;;;;1.51;100.00;97919.94;5075113;28;20045;-70
2021/01/02 11:09:32;;;;;;;88.32;44.55;;;;;;;1.54;100.00;97914.66;5061771;28;20086;-69
2021/01/02 11:11:58;;;;;;;92.57;47.85;;;;;;;1.56;100.00;97912.03;5055143;28;20053;-70
2021/01/02 11:14:25;;;;;;;85.18;44.53;;;;;;;1.69;100.00;97904.66;5066401;28;20124;-71
2021/01/02 11:16:51;;;;;;;82.70;44.53;;;;;;;1.70;100.00;97896.88;5074853;28;20036;-70
2021/01/02 11:19:28;;;;;;;91.60;46.20;;;;;;;1.71;100.00;97900.28;5074645;28;20049;-69
2021/01/02 11:21:56;;;;;;;88.80;44.47;;;;;;;1.65;100.00;97887.59;5074549;28;20097;-70
2021/01/02 11:24:25;;;;;;;84.75;43.78;;;;;;;1.74;100.00;97892.41;5074587;28;20041;-79